Terminal Aerodrome Forecast
Issued by NWS Jackson, MS

Home | Current Version | Previous Version | Text Only | Print | Product List | Glossary On
Versions: 1 2 3 4 5 6 7 8 9 10 11 12 13 14 15 16 17 18 19 20 21 22 23 24 25 26
000
FTUS44 KJAN 170520
TAFGWO
TAF
KGWO 170520Z 1706/1806 22008KT P6SM BKN110
     FM171100 17005KT P6SM BKN015
     FM171400 18006KT P6SM BKN025 BKN250
     FM171900 18008KT P6SM VCSH BKN040 BKN060
     FM172200 19010KT 4SM RA BR VCTS BKN025CB OVC050
     FM180200 16008KT 5SM -RA BR BKN050 OVC100=

USA.gov is the U.S. government's official web portal to all federal, state and local government web resources and services.